Tropical Cyclones
[Index]
Main Index Home Page Stock Weather Photos Extreme Storms Discussion Storm News and Storm Chasing Reports Tropical Cyclones / Hurricanes / Typhoons Weather Data and Links Wild Fires / Bushfires Weather Observation Techniques Weather Picture Catalogue Tornado Pictures and Reports Stock Video Footage and DVDs for sale
Season 2004-2005 Tropical Cyclone FELAPI Track Map
Season 2004-2005 Summaries (Operational Data): [AU] [SIO] [SPAC] [SH]
<<- Previous TC | 2004-2005 Season | Next TC ->>

click for intensity scale information  Lat/long Grid: Show Hide

 Date Labels: Show Hide

Operational Tropical Cyclone Data

Name: FELAPI
Number: 05S1

26 Jan 2005 12:00 UTC to 02 Feb 2005 18:00 UTC

    date/time    lat    long     hPa   cat  kts
2005-01-26 12   20.5    40.5    1004         20          
2005-01-27 00   22.0    40.8    1001         25          
2005-01-27 06   22.0    41.0     998         30          
2005-01-27 12   22.1    41.3     998         30          
2005-01-27 18   22.1    42.0     996    1    35          
2005-01-28 00   22.4    42.9     995    1    35          
2005-01-28 06   23.4    43.4     995    1    35          
2005-01-28 12   24.0    44.0     997         30          
2005-01-28 18   24.8    44.5    1001         25          
2005-01-29 06   26.1    45.8    1000         25          
2005-01-29 12   26.3    46.5    1000         25          
2005-01-29 18   26.1    46.7     999         25          
2005-01-30 00   25.6    47.6     998         25          
2005-01-30 12   23.5    49.0     999         25          
2005-01-30 18   22.7    50.8     999         25          
2005-01-31 00   23.0    50.8     996         30          
2005-01-31 06   22.0    50.5    1000         25          
2005-01-31 12   23.1    50.7    1000         25          
2005-02-01 12   27.0    49.5     999    1    35          
2005-02-01 18   27.8    49.8     999         30          
2005-02-02 00   28.7    49.7    1000         30          
2005-02-02 06   29.1    50.0    1000         30          
2005-02-02 12   29.8    50.4    1000         30          
2005-02-02 18   30.9    51.5    1000         30          
Winds are 10-min average.

Tropical cyclone tracks developed by Michael Bath using operational warnings and advisories and Google Maps.


[Australian Severe Weather index] [Copyright Notice] [Email Contacts] [Search This Site] [Privacy Policy]
Document: tropical_cyclone_felapi.htm Updated: 28 May 2013